Time;durP1;ratioP1;P1;durP2;ratioP2;P2;SDS_P1;SDS_P2;PMS_P1;PMS_P2;Temp;Humidity;BMP_temperature;BMP_pressure;BME280_temperature;BME280_humidity;BME280_pressure;Samples;Min_cycle;Max_cycle;Signal;HPM_P1;HPM_P2
2023/08/15 00:01:35;;;;;;;13.93;9.27;;;25.00;99.90;;;;;;5079247;28;20412;-73
2023/08/15 00:04:02;;;;;;;16.10;9.82;;;25.00;99.90;;;;;;5071200;28;20591;-73
2023/08/15 00:06:28;;;;;;;12.73;9.20;;;25.00;99.90;;;;;;5070648;28;20498;-73
2023/08/15 00:08:54;;;;;;;17.27;9.68;;;25.00;99.90;;;;;;5076102;28;20815;-73
2023/08/15 00:11:22;;;;;;;16.65;9.80;;;25.00;99.90;;;;;;5063065;28;20489;-73
2023/08/15 00:13:49;;;;;;;14.57;9.57;;;25.00;99.90;;;;;;5082363;28;20424;-73
2023/08/15 00:16:15;;;;;;;15.52;9.30;;;25.00;99.90;;;;;;5106113;28;20414;-73
2023/08/15 00:18:42;;;;;;;14.67;9.10;;;25.00;99.90;;;;;;5079065;28;20413;-73
2023/08/15 00:21:10;;;;;;;15.20;9.77;;;25.00;99.90;;;;;;5081779;28;20482;-73
2023/08/15 00:23:36;;;;;;;19.55;9.75;;;25.00;99.90;;;;;;5079185;28;20402;-73
2023/08/15 00:26:02;;;;;;;15.10;9.32;;;25.00;99.90;;;;;;5086219;28;20416;-73
2023/08/15 00:28:28;;;;;;;15.75;9.25;;;25.00;99.90;;;;;;5081663;28;20417;-73
2023/08/15 00:30:54;;;;;;;18.27;9.95;;;25.00;99.90;;;;;;5081724;28;20439;-73
2023/08/15 00:33:21;;;;;;;16.85;9.73;;;25.00;99.90;;;;;;5083058;28;20410;-73
2023/08/15 00:35:47;;;;;;;14.02;9.20;;;25.00;99.90;;;;;;5078857;28;20441;-73
2023/08/15 00:38:13;;;;;;;17.05;9.18;;;25.10;99.90;;;;;;5079084;28;20413;-73
2023/08/15 00:40:40;;;;;;;17.40;9.35;;;25.00;99.90;;;;;;5066065;28;20800;-73
2023/08/15 00:43:08;;;;;;;13.55;8.80;;;25.00;99.90;;;;;;5083039;28;20408;-73
2023/08/15 00:45:39;;;;;;;15.43;9.00;;;25.10;99.90;;;;;;5061174;28;20398;-72
2023/08/15 00:48:07;;;;;;;14.75;9.18;;;25.00;99.90;;;;;;5082452;28;20907;-72
2023/08/15 00:50:34;;;;;;;16.65;9.57;;;25.10;99.90;;;;;;5080306;28;20930;-72
2023/08/15 00:53:02;;;;;;;13.50;8.87;;;25.00;99.90;;;;;;5095045;27;21259;-72
2023/08/15 00:55:30;;;;;;;15.45;9.32;;;25.10;99.90;;;;;;5056897;28;20418;-72
2023/08/15 00:57:57;;;;;;;17.40;9.20;;;25.10;99.90;;;;;;5095036;27;20414;-72
2023/08/15 01:00:23;;;;;;;19.38;10.05;;;25.10;99.90;;;;;;5085827;28;20413;-72
2023/08/15 01:02:50;;;;;;;17.98;10.30;;;25.10;99.90;;;;;;5080535;28;20481;-72
2023/08/15 01:05:20;;;;;;;20.23;10.63;;;25.10;99.90;;;;;;5081251;28;20406;-72
2023/08/15 01:07:46;;;;;;;20.15;10.77;;;25.20;99.90;;;;;;5073023;28;20402;-72
2023/08/15 01:10:12;;;;;;;22.42;10.90;;;25.20;99.90;;;;;;5079323;28;20888;-72
2023/08/15 01:13:09;;;;;;;17.95;10.70;;;25.20;99.90;;;;;;5064377;28;20401;-72
2023/08/15 01:15:45;;;;;;;18.10;10.35;;;25.20;99.90;;;;;;5081089;28;20417;-72
2023/08/15 01:18:31;;;;;;;23.65;11.23;;;25.20;99.90;;;;;;5078768;28;20429;-72
2023/08/15 01:21:01;;;;;;;22.65;10.65;;;25.20;99.90;;;;;;5077737;28;20463;-72
2023/08/15 01:23:45;;;;;;;18.73;9.90;;;25.20;99.90;;;;;;5079841;28;20425;-72
2023/08/15 01:26:12;;;;;;;16.65;10.60;;;25.20;99.90;;;;;;5078537;28;20416;-72
2023/08/15 01:28:39;;;;;;;18.63;10.65;;;25.20;99.90;;;;;;5078735;28;20412;-72
2023/08/15 01:31:48;;;;;;;21.25;11.25;;;25.20;99.90;;;;;;5083152;28;20406;-72
2023/08/15 01:34:22;;;;;;;15.73;10.38;;;25.20;99.90;;;;;;5067223;28;20445;-72
2023/08/15 01:37:17;;;;;;;19.10;10.83;;;25.20;99.90;;;;;;5076530;28;20414;-72
2023/08/15 01:39:50;;;;;;;16.83;10.07;;;25.20;99.90;;;;;;5082481;28;20398;-72
2023/08/15 01:42:20;;;;;;;18.35;10.32;;;25.20;99.90;;;;;;5082725;28;20440;-72
2023/08/15 01:44:47;;;;;;;18.35;10.07;;;25.20;99.90;;;;;;5079513;28;20505;-72
2023/08/15 01:47:14;;;;;;;17.52;10.65;;;25.10;99.90;;;;;;5072885;28;20923;-72
2023/08/15 01:49:40;;;;;;;20.00;10.68;;;25.20;99.90;;;;;;5077073;28;20480;-72
2023/08/15 01:52:06;;;;;;;18.58;9.90;;;25.20;99.90;;;;;;5082927;28;20987;-72
2023/08/15 01:54:32;;;;;;;17.25;10.18;;;25.20;99.90;;;;;;5082798;28;20947;-72
2023/08/15 01:56:58;;;;;;;18.33;10.55;;;25.10;99.90;;;;;;5069113;28;20407;-73
2023/08/15 01:59:25;;;;;;;18.42;9.93;;;25.10;99.90;;;;;;5076730;28;20438;-73
2023/08/15 02:01:51;;;;;;;18.45;9.80;;;25.10;99.90;;;;;;5077581;28;20885;-73
2023/08/15 02:04:17;;;;;;;17.23;10.30;;;25.10;99.90;;;;;;5082164;28;20397;-73
2023/08/15 02:06:43;;;;;;;16.23;10.10;;;25.10;99.90;;;;;;5055716;28;20415;-73
2023/08/15 02:09:10;;;;;;;15.90;10.05;;;25.10;99.90;;;;;;5066547;28;21324;-73
2023/08/15 02:11:36;;;;;;;19.10;10.70;;;25.10;99.90;;;;;;5109164;27;20406;-73
2023/08/15 02:14:02;;;;;;;20.13;10.77;;;25.20;99.90;;;;;;5078164;28;20529;-73
2023/08/15 02:16:28;;;;;;;17.50;10.32;;;25.10;99.90;;;;;;5078311;28;20413;-73
2023/08/15 02:18:55;;;;;;;19.45;10.07;;;25.10;99.90;;;;;;5078818;28;20422;-73
2023/08/15 02:21:21;;;;;;;18.30;10.55;;;25.10;99.90;;;;;;5077128;28;20396;-73
2023/08/15 02:23:47;;;;;;;19.67;10.13;;;25.10;99.90;;;;;;5073046;28;20750;-73
2023/08/15 02:26:13;;;;;;;19.65;10.32;;;25.10;99.90;;;;;;5075164;28;20816;-72
2023/08/15 02:28:39;;;;;;;18.08;10.40;;;25.10;99.90;;;;;;5061145;28;20495;-73
2023/08/15 02:31:06;;;;;;;18.77;10.23;;;25.10;99.90;;;;;;5075149;28;20912;-73
2023/08/15 02:33:33;;;;;;;16.98;10.48;;;25.10;99.90;;;;;;5079777;28;20418;-73
2023/08/15 02:36:05;;;;;;;20.35;10.70;;;25.10;99.90;;;;;;5077922;28;20415;-73
2023/08/15 02:38:33;;;;;;;21.20;11.13;;;25.10;99.90;;;;;;5080739;28;21142;-73
2023/08/15 02:40:59;;;;;;;17.77;10.18;;;25.10;99.90;;;;;;5079133;28;20445;-73
2023/08/15 02:43:26;;;;;;;18.87;10.63;;;25.10;99.90;;;;;;5078403;28;20406;-73
2023/08/15 02:45:52;;;;;;;22.50;10.70;;;25.10;99.90;;;;;;5076277;28;20434;-73
2023/08/15 02:48:22;;;;;;;19.42;10.55;;;25.10;99.90;;;;;;5080324;28;20417;-73
2023/08/15 02:50:48;;;;;;;16.10;10.43;;;25.10;99.90;;;;;;5076942;28;20421;-73
2023/08/15 02:53:15;;;;;;;21.17;11.20;;;25.10;99.90;;;;;;5080946;28;20447;-73
2023/08/15 02:55:41;;;;;;;18.98;10.88;;;25.00;99.90;;;;;;5080239;28;20497;-73
2023/08/15 02:58:07;;;;;;;20.83;11.13;;;25.00;99.90;;;;;;5079903;28;20410;-73
2023/08/15 03:00:36;;;;;;;18.38;10.80;;;25.00;99.90;;;;;;5078255;28;20450;-73
2023/08/15 03:03:03;;;;;;;20.00;11.10;;;25.10;99.90;;;;;;5078433;28;20906;-73
2023/08/15 03:05:29;;;;;;;19.02;11.27;;;25.00;99.90;;;;;;5076486;28;20433;-73
2023/08/15 03:07:55;;;;;;;18.35;11.05;;;25.00;99.90;;;;;;5073365;28;20390;-73
2023/08/15 03:10:21;;;;;;;19.17;11.32;;;25.00;99.90;;;;;;5085992;28;20404;-73
2023/08/15 03:12:48;;;;;;;17.95;10.98;;;25.00;99.90;;;;;;5076876;28;20417;-73
2023/08/15 03:15:14;;;;;;;20.60;10.93;;;25.00;99.90;;;;;;5078954;28;20415;-73
2023/08/15 03:17:40;;;;;;;19.25;10.50;;;25.00;99.90;;;;;;5076733;28;20412;-73
2023/08/15 03:20:09;;;;;;;21.95;11.02;;;25.00;99.90;;;;;;5081609;28;20416;-73
2023/08/15 03:22:35;;;;;;;19.43;10.47;;;25.00;99.90;;;;;;5081921;28;20773;-73
2023/08/15 03:25:01;;;;;;;22.67;11.13;;;25.00;99.90;;;;;;5078314;28;20410;-73
2023/08/15 03:27:28;;;;;;;17.65;10.45;;;24.90;99.90;;;;;;5080895;28;20983;-73
2023/08/15 03:29:54;;;;;;;17.38;10.43;;;24.90;99.90;;;;;;5060334;28;20432;-73
2023/08/15 03:32:20;;;;;;;18.20;10.70;;;24.90;99.90;;;;;;5089767;28;20482;-73
2023/08/15 03:34:46;;;;;;;20.05;10.57;;;24.90;99.90;;;;;;5078387;28;20414;-73
2023/08/15 03:37:12;;;;;;;17.63;9.93;;;24.80;99.90;;;;;;5061100;28;20408;-73
2023/08/15 03:39:38;;;;;;;24.58;10.07;;;24.80;99.90;;;;;;5080796;28;20438;-73
2023/08/15 03:42:05;;;;;;;15.43;8.85;;;24.70;99.90;;;;;;5091210;28;20960;-73
2023/08/15 03:44:31;;;;;;;12.83;9.00;;;24.50;99.90;;;;;;5064195;28;20415;-73
2023/08/15 03:46:57;;;;;;;12.93;8.77;;;24.50;99.90;;;;;;5076060;28;20398;-72
2023/08/15 03:49:23;;;;;;;17.50;8.70;;;24.50;99.90;;;;;;5082178;28;20710;-73
2023/08/15 03:51:50;;;;;;;19.35;9.30;;;24.50;99.90;;;;;;5079145;28;20427;-73
2023/08/15 03:54:16;;;;;;;15.85;9.13;;;24.50;99.90;;;;;;5083881;28;20398;-73
2023/08/15 03:56:42;;;;;;;16.85;9.38;;;24.60;99.90;;;;;;5078169;28;20418;-73
2023/08/15 03:59:09;;;;;;;15.32;8.95;;;24.60;99.90;;;;;;5079510;28;20409;-73
2023/08/15 04:01:35;;;;;;;17.42;9.73;;;24.70;99.90;;;;;;5080850;28;20415;-73
2023/08/15 04:04:01;;;;;;;16.98;9.15;;;24.70;99.90;;;;;;5080826;28;20522;-73
2023/08/15 04:06:27;;;;;;;15.82;9.02;;;24.70;99.90;;;;;;5079607;28;20411;-73
2023/08/15 04:08:54;;;;;;;18.03;9.50;;;24.70;99.90;;;;;;5079749;28;20832;-74
2023/08/15 04:11:20;;;;;;;12.35;8.77;;;24.70;99.90;;;;;;5077917;28;20421;-73
2023/08/15 04:13:46;;;;;;;18.85;9.55;;;24.70;99.90;;;;;;5068154;28;20505;-73
2023/08/15 04:16:13;;;;;;;14.25;9.35;;;24.70;99.90;;;;;;5082483;28;20985;-73
2023/08/15 04:18:39;;;;;;;14.57;8.98;;;24.70;99.90;;;;;;5080447;28;20455;-73
2023/08/15 04:21:05;;;;;;;13.05;8.68;;;24.80;99.90;;;;;;5065459;28;20412;-73
2023/08/15 04:23:31;;;;;;;14.32;8.90;;;24.70;99.90;;;;;;5062782;28;20491;-73
2023/08/15 04:25:58;;;;;;;13.48;8.60;;;24.80;99.90;;;;;;5059197;28;20412;-73
2023/08/15 04:28:24;;;;;;;16.17;8.55;;;24.80;99.90;;;;;;5081915;28;20398;-73
2023/08/15 04:30:50;;;;;;;13.95;8.65;;;24.80;99.90;;;;;;5096799;27;20787;-73
2023/08/15 04:33:16;;;;;;;13.85;7.80;;;24.80;99.90;;;;;;5083910;28;20483;-73
2023/08/15 04:35:42;;;;;;;11.98;7.40;;;24.80;99.90;;;;;;5082397;28;20410;-72
2023/08/15 04:38:10;;;;;;;11.55;7.07;;;24.80;99.90;;;;;;5079338;28;20923;-73
2023/08/15 04:40:40;;;;;;;13.43;6.97;;;24.80;99.90;;;;;;5085862;28;20404;-74
2023/08/15 04:43:07;;;;;;;12.38;7.47;;;24.80;99.90;;;;;;5083158;28;20426;-74
2023/08/15 04:45:40;;;;;;;11.80;7.20;;;24.70;99.90;;;;;;5078398;28;20419;-73
2023/08/15 04:48:08;;;;;;;9.45;6.47;;;24.80;99.90;;;;;;5063677;28;20775;-74
2023/08/15 04:50:34;;;;;;;10.52;7.25;;;24.80;99.90;;;;;;5082307;28;20443;-73
2023/08/15 04:53:00;;;;;;;15.23;6.93;;;24.80;99.90;;;;;;5081664;28;20435;-73
2023/08/15 04:55:26;;;;;;;11.13;6.50;;;24.80;99.90;;;;;;5078489;28;20421;-73
2023/08/15 04:57:53;;;;;;;11.35;7.43;;;24.90;99.90;;;;;;5079521;28;20414;-72
2023/08/15 05:00:19;;;;;;;15.23;8.48;;;24.90;99.90;;;;;;5083657;28;20412;-72
2023/08/15 05:02:49;;;;;;;11.70;8.07;;;24.90;99.90;;;;;;5077256;28;20965;-73
2023/08/15 05:05:15;;;;;;;16.73;8.90;;;24.90;99.90;;;;;;5083716;28;20406;-72
2023/08/15 05:07:42;;;;;;;17.55;9.15;;;25.00;99.90;;;;;;5064028;28;20490;-72
2023/08/15 05:10:08;;;;;;;14.93;9.23;;;25.10;99.90;;;;;;5084630;28;20764;-72
2023/08/15 05:12:34;;;;;;;16.92;9.23;;;25.10;99.90;;;;;;5079292;28;20406;-72
2023/08/15 05:15:01;;;;;;;15.23;9.50;;;25.10;99.90;;;;;;5061984;28;20459;-72
2023/08/15 05:17:28;;;;;;;17.23;9.57;;;25.10;99.90;;;;;;5083205;28;20408;-73
2023/08/15 05:19:54;;;;;;;16.23;9.40;;;25.20;99.90;;;;;;5081412;28;20541;-74
2023/08/15 05:22:20;;;;;;;14.90;9.38;;;25.20;99.90;;;;;;5085241;28;20797;-72
2023/08/15 05:24:46;;;;;;;17.10;9.48;;;25.20;99.90;;;;;;5083763;28;20904;-73
2023/08/15 05:27:13;;;;;;;17.13;9.30;;;25.30;99.90;;;;;;5078812;28;20426;-73
2023/08/15 05:29:43;;;;;;;17.00;9.00;;;25.30;99.90;;;;;;5081935;28;20427;-73
2023/08/15 05:32:10;;;;;;;17.85;9.60;;;25.40;99.90;;;;;;5081066;28;20415;-73
2023/08/15 05:34:37;;;;;;;16.05;9.68;;;25.40;99.90;;;;;;5082792;28;20414;-73
2023/08/15 05:37:06;;;;;;;13.80;8.85;;;25.40;99.90;;;;;;5061891;28;20502;-73
2023/08/15 05:39:32;;;;;;;16.83;9.30;;;25.40;99.90;;;;;;5080826;28;20501;-73
2023/08/15 05:41:58;;;;;;;15.80;8.82;;;25.50;99.90;;;;;;5061863;28;20450;-71
2023/08/15 05:44:25;;;;;;;15.15;8.80;;;25.50;99.90;;;;;;5081128;28;21043;-72
2023/08/15 05:46:51;;;;;;;15.82;9.52;;;25.60;99.90;;;;;;5079859;28;20410;-72
2023/08/15 05:49:17;;;;;;;15.15;8.95;;;25.60;99.90;;;;;;5079634;28;20408;-71
2023/08/15 05:51:44;;;;;;;17.88;9.23;;;25.70;99.90;;;;;;5065803;28;20430;-71
2023/08/15 05:54:10;;;;;;;14.13;9.00;;;25.70;99.90;;;;;;5078276;28;21282;-73
2023/08/15 05:56:36;;;;;;;14.88;8.90;;;25.80;99.90;;;;;;5079051;28;21041;-73
2023/08/15 05:59:02;;;;;;;15.10;8.68;;;25.80;99.90;;;;;;5085157;28;20516;-73
2023/08/15 06:01:29;;;;;;;17.33;8.68;;;25.90;99.90;;;;;;5079038;28;20422;-72
2023/08/15 06:03:55;;;;;;;15.73;8.75;;;25.90;99.90;;;;;;5079132;28;20471;-72
2023/08/15 06:06:23;;;;;;;19.48;9.23;;;26.00;99.90;;;;;;5063903;28;21015;-72
2023/08/15 06:08:49;;;;;;;15.57;9.20;;;26.00;99.90;;;;;;5080245;28;20424;-72
2023/08/15 06:11:15;;;;;;;14.82;8.40;;;26.00;99.90;;;;;;5080825;28;20418;-72
2023/08/15 06:13:42;;;;;;;16.38;9.50;;;26.10;99.90;;;;;;5078547;28;20413;-72
2023/08/15 06:16:08;;;;;;;17.23;8.98;;;26.10;99.90;;;;;;5074520;28;20431;-72
2023/08/15 06:18:34;;;;;;;16.15;8.95;;;26.20;99.90;;;;;;5059630;28;20407;-72
2023/08/15 06:21:00;;;;;;;15.55;9.00;;;26.30;99.90;;;;;;5074518;28;20484;-72
2023/08/15 06:23:26;;;;;;;15.55;8.90;;;26.30;99.90;;;;;;5084270;28;20802;-72
2023/08/15 06:25:52;;;;;;;16.60;9.10;;;26.30;99.90;;;;;;5076565;28;20412;-71
2023/08/15 06:28:20;;;;;;;17.05;9.43;;;26.40;99.90;;;;;;5067481;28;20410;-71
2023/08/15 06:30:46;;;;;;;15.52;8.65;;;26.40;99.90;;;;;;5082285;28;20734;-72
2023/08/15 06:33:13;;;;;;;16.38;8.93;;;26.50;99.90;;;;;;5077854;28;20499;-72
2023/08/15 06:35:39;;;;;;;15.25;9.20;;;26.50;99.90;;;;;;5078964;28;20492;-72
2023/08/15 06:38:06;;;;;;;16.70;8.90;;;26.50;99.90;;;;;;5075835;28;20935;-72
2023/08/15 06:40:32;;;;;;;15.88;8.23;;;26.60;99.90;;;;;;5065628;28;20406;-72
2023/08/15 06:42:58;;;;;;;15.10;8.52;;;26.70;99.90;;;;;;5076623;28;20393;-72
2023/08/15 06:45:25;;;;;;;15.80;8.30;;;26.70;99.90;;;;;;5081372;28;20405;-72
2023/08/15 06:47:51;;;;;;;17.20;8.38;;;26.70;99.90;;;;;;5060981;28;20405;-72
2023/08/15 06:50:18;;;;;;;13.90;7.70;;;26.80;99.90;;;;;;5080244;28;20587;-72
2023/08/15 06:52:44;;;;;;;17.23;8.15;;;26.80;99.90;;;;;;5079347;28;20406;-72
2023/08/15 06:55:11;;;;;;;14.63;7.80;;;26.80;99.90;;;;;;5078110;28;20456;-73
2023/08/15 06:57:37;;;;;;;14.73;8.53;;;26.90;99.90;;;;;;5058973;28;20413;-72
2023/08/15 07:00:07;;;;;;;15.23;8.00;;;27.00;99.90;;;;;;5077679;28;20443;-72
2023/08/15 07:02:33;;;;;;;16.10;7.53;;;27.10;99.90;;;;;;5079416;28;20432;-72
2023/08/15 07:04:59;;;;;;;14.82;7.53;;;27.10;99.90;;;;;;5082579;28;20416;-72
2023/08/15 07:07:26;;;;;;;14.63;7.72;;;27.10;99.90;;;;;;5065848;28;20417;-72
2023/08/15 07:09:52;;;;;;;14.43;7.47;;;27.10;99.90;;;;;;5080972;28;20418;-72
2023/08/15 07:12:18;;;;;;;14.67;7.27;;;27.20;99.90;;;;;;5077303;28;20437;-72
2023/08/15 07:14:46;;;;;;;15.63;7.50;;;27.30;99.90;;;;;;5076424;28;20486;-72
2023/08/15 07:17:12;;;;;;;15.32;7.43;;;27.30;99.90;;;;;;5076408;28;20404;-72
2023/08/15 07:19:38;;;;;;;15.80;7.88;;;27.40;99.90;;;;;;5094877;28;20414;-72
2023/08/15 07:22:05;;;;;;;16.13;8.50;;;27.50;99.90;;;;;;5076788;28;20394;-73
2023/08/15 07:24:31;;;;;;;13.85;8.30;;;27.60;99.90;;;;;;5079869;28;20419;-72
2023/08/15 07:26:58;;;;;;;17.70;8.57;;;27.60;99.90;;;;;;5058631;28;20884;-72
2023/08/15 07:29:24;;;;;;;16.50;8.43;;;27.60;99.90;;;;;;5082814;28;20413;-73
2023/08/15 07:31:51;;;;;;;16.42;7.40;;;27.70;99.90;;;;;;5081825;28;20409;-72
2023/08/15 07:34:17;;;;;;;12.57;6.10;;;27.70;99.90;;;;;;5077732;28;20432;-72
2023/08/15 07:36:44;;;;;;;8.90;5.00;;;27.70;99.90;;;;;;5082889;28;20413;-72
2023/08/15 07:39:10;;;;;;;10.07;5.40;;;27.70;99.90;;;;;;5081133;28;20402;-73
2023/08/15 07:41:36;;;;;;;10.02;4.82;;;27.70;99.90;;;;;;5081733;28;20401;-73
2023/08/15 07:44:03;;;;;;;10.55;5.15;;;27.70;99.90;;;;;;5060946;28;20418;-72
2023/08/15 07:46:29;;;;;;;9.20;4.40;;;27.80;99.90;;;;;;5082474;28;20988;-72
2023/08/15 07:48:55;;;;;;;9.75;4.80;;;27.80;99.90;;;;;;5081009;28;20471;-72
2023/08/15 07:51:22;;;;;;;11.35;5.53;;;27.90;99.90;;;;;;5078858;28;20819;-72
2023/08/15 07:53:48;;;;;;;12.77;6.60;;;28.00;99.90;;;;;;5083236;28;20870;-72
2023/08/15 07:56:14;;;;;;;13.67;6.43;;;28.10;99.90;;;;;;5079952;28;20412;-72
2023/08/15 07:58:40;;;;;;;16.05;6.68;;;28.20;99.90;;;;;;5085161;28;20436;-72
2023/08/15 08:01:08;;;;;;;15.13;7.00;;;28.30;99.90;;;;;;5081487;28;20815;-72
2023/08/15 08:03:38;;;;;;;17.65;7.28;;;28.30;99.90;;;;;;5079138;28;20535;-73
2023/08/15 08:06:05;;;;;;;14.20;7.60;;;28.40;99.90;;;;;;5078739;28;20493;-72
2023/08/15 08:08:31;;;;;;;14.63;7.75;;;28.40;99.90;;;;;;5084177;28;20420;-73
2023/08/15 08:10:57;;;;;;;15.88;8.05;;;28.50;99.90;;;;;;5081100;28;20421;-72
2023/08/15 08:13:24;;;;;;;13.63;8.57;;;28.50;99.90;;;;;;5063917;28;20421;-72
2023/08/15 08:15:50;;;;;;;17.20;8.25;;;28.60;99.90;;;;;;5063751;28;20459;-72
2023/08/15 08:18:16;;;;;;;14.60;7.93;;;28.60;99.90;;;;;;5061218;28;21145;-72
2023/08/15 08:20:43;;;;;;;13.68;7.85;;;28.70;99.90;;;;;;5083410;27;20400;-72
2023/08/15 08:23:09;;;;;;;18.00;9.02;;;28.70;99.90;;;;;;5065485;28;20519;-72
2023/08/15 08:25:36;;;;;;;18.05;8.68;;;28.80;99.90;;;;;;5076933;28;20401;-72
2023/08/15 08:28:02;;;;;;;16.25;8.77;;;28.80;99.90;;;;;;5078564;28;20414;-72
2023/08/15 08:30:29;;;;;;;16.67;9.50;;;28.90;99.90;;;;;;5080233;28;20422;-72
2023/08/15 08:32:55;;;;;;;16.27;8.60;;;28.90;99.90;;;;;;5064604;28;20904;-72
2023/08/15 08:35:22;;;;;;;16.52;8.80;;;28.90;99.90;;;;;;5079682;28;20415;-72
2023/08/15 08:37:48;;;;;;;16.05;9.15;;;28.90;99.90;;;;;;5064588;28;20433;-72
2023/08/15 08:40:18;;;;;;;19.60;8.77;;;29.00;99.90;;;;;;5073508;28;20587;-72
2023/08/15 08:42:45;;;;;;;20.50;9.43;;;29.00;99.90;;;;;;5079074;28;20309;-72
2023/08/15 08:45:13;;;;;;;14.90;9.38;;;29.00;99.90;;;;;;5081509;28;20201;-72
2023/08/15 08:47:42;;;;;;;13.77;8.98;;;29.00;99.90;;;;;;5081006;28;20232;-73
2023/08/15 08:50:11;;;;;;;18.42;9.10;;;29.00;99.90;;;;;;5079139;28;20208;-72
2023/08/15 08:52:50;;;;;;;17.58;9.40;;;29.00;99.90;;;;;;5081731;28;20275;-72
2023/08/15 08:55:26;;;;;;;16.70;9.20;;;29.10;99.90;;;;;;5081874;28;20755;-72
2023/08/15 08:57:54;;;;;;;20.42;9.50;;;29.10;99.90;;;;;;5082637;28;20188;-72
2023/08/15 09:00:31;;;;;;;18.08;9.30;;;29.20;99.90;;;;;;5080057;28;20578;-72
2023/08/15 09:02:58;;;;;;;19.00;9.98;;;29.20;99.90;;;;;;5083568;28;20186;-72
2023/08/15 09:05:26;;;;;;;17.42;8.68;;;29.20;99.90;;;;;;5081501;28;20179;-72
2023/08/15 09:07:53;;;;;;;21.08;9.38;;;29.30;99.90;;;;;;5063381;28;20189;-72
2023/08/15 09:10:23;;;;;;;18.55;9.63;;;29.30;99.90;;;;;;5079675;28;20194;-72
2023/08/15 09:12:49;;;;;;;17.45;8.38;;;29.30;99.90;;;;;;5077087;28;20212;-72
2023/08/15 09:15:16;;;;;;;19.00;8.73;;;29.30;99.90;;;;;;5078080;28;20191;-72
2023/08/15 09:17:43;;;;;;;15.07;9.00;;;29.30;99.90;;;;;;5079203;28;20944;-72
2023/08/15 09:20:16;;;;;;;15.48;8.02;;;29.40;99.90;;;;;;5060281;28;20277;-72
2023/08/15 09:22:45;;;;;;;16.65;9.40;;;29.40;99.90;;;;;;5091923;28;20182;-72
2023/08/15 09:25:17;;;;;;;17.60;8.40;;;29.50;99.90;;;;;;5077716;28;20221;-72
2023/08/15 09:27:44;;;;;;;16.55;9.07;;;29.60;99.90;;;;;;5063718;28;20221;-72
2023/08/15 09:30:15;;;;;;;21.75;9.70;;;29.60;99.90;;;;;;5075635;28;20313;-72
2023/08/15 09:32:44;;;;;;;11.95;8.30;;;29.60;99.90;;;;;;5079431;28;20190;-72
2023/08/15 09:35:18;;;;;;;15.90;7.90;;;29.60;99.90;;;;;;5077336;28;20263;-72
2023/08/15 09:37:48;;;;;;;14.40;8.18;;;29.70;99.90;;;;;;5080659;28;20190;-72
2023/08/15 09:40:22;;;;;;;19.55;9.07;;;29.80;99.90;;;;;;5077262;28;20231;-72
2023/08/15 09:42:49;;;;;;;16.35;8.10;;;29.80;99.90;;;;;;5080388;28;20213;-72
2023/08/15 09:45:16;;;;;;;17.52;8.25;;;29.90;99.90;;;;;;5077326;28;20269;-72
2023/08/15 09:47:45;;;;;;;16.15;7.80;;;30.00;99.90;;;;;;5080945;28;20198;-72
2023/08/15 09:50:14;;;;;;;16.23;7.70;;;30.10;99.90;;;;;;5081856;28;20193;-72
2023/08/15 09:52:46;;;;;;;13.02;7.82;;;30.20;99.90;;;;;;5078562;28;20271;-72
2023/08/15 09:55:15;;;;;;;18.17;8.15;;;30.30;99.90;;;;;;5076937;28;20372;-72
2023/08/15 09:57:44;;;;;;;17.75;7.63;;;30.30;99.90;;;;;;5081786;28;20201;-72
2023/08/15 10:00:13;;;;;;;13.38;7.80;;;30.40;99.90;;;;;;5077942;28;20182;-72
2023/08/15 10:02:48;;;;;;;17.75;8.30;;;30.50;99.90;;;;;;5081526;28;20220;-72
2023/08/15 10:05:21;;;;;;;14.95;7.93;;;30.50;99.90;;;;;;5098134;27;21000;-72
2023/08/15 10:07:50;;;;;;;16.42;7.72;;;30.60;99.90;;;;;;5094669;28;20276;-72
2023/08/15 10:10:18;;;;;;;15.90;7.95;;;30.60;99.90;;;;;;5098822;27;20845;-72
2023/08/15 10:12:48;;;;;;;20.88;8.13;;;30.60;99.90;;;;;;5081098;28;20184;-72
2023/08/15 10:15:16;;;;;;;16.73;7.65;;;30.70;99.90;;;;;;5081025;28;20263;-72
2023/08/15 10:17:43;;;;;;;15.20;8.23;;;30.70;99.90;;;;;;5077994;28;20231;-72
2023/08/15 10:20:12;;;;;;;15.63;6.97;;;30.80;99.90;;;;;;5068323;28;20182;-72
2023/08/15 10:22:39;;;;;;;14.15;7.70;;;30.80;99.90;;;;;;5061164;27;20218;-72
2023/08/15 10:25:33;;;;;;;15.30;7.50;;;30.90;99.90;;;;;;5081791;28;20257;-72
2023/08/15 10:28:05;;;;;;;14.48;7.75;;;30.90;99.90;;;;;;5098493;27;20204;-72
2023/08/15 10:30:41;;;;;;;11.65;7.30;;;30.90;99.90;;;;;;5081549;28;20221;-72
2023/08/15 10:33:26;;;;;;;13.68;8.15;;;30.90;99.90;;;;;;5069330;28;20192;-72
2023/08/15 10:36:07;;;;;;;10.18;6.80;;;30.90;99.90;;;;;;5097128;28;20574;-72
2023/08/15 10:38:40;;;;;;;18.38;7.32;;;30.90;99.90;;;;;;5086960;28;20194;-72
2023/08/15 10:41:17;;;;;;;17.27;7.70;;;30.90;99.90;;;;;;5097245;28;20220;-72
2023/08/15 10:43:55;;;;;;;12.98;8.10;;;30.90;99.90;;;;;;5098631;27;20273;-72
2023/08/15 10:46:27;;;;;;;16.63;8.95;;;31.00;99.90;;;;;;5082461;28;20249;-72
2023/08/15 10:49:11;;;;;;;17.48;8.68;;;31.00;99.90;;;;;;5082572;28;20659;-72
2023/08/15 10:51:40;;;;;;;14.05;7.90;;;31.00;99.90;;;;;;5113718;27;20186;-73
2023/08/15 10:54:12;;;;;;;17.20;7.95;;;31.10;99.90;;;;;;5082110;28;20296;-72
2023/08/15 10:56:41;;;;;;;14.23;7.90;;;31.10;99.90;;;;;;5114850;27;20190;-72
2023/08/15 10:59:13;;;;;;;14.95;8.60;;;31.10;99.90;;;;;;5101167;28;20563;-73
2023/08/15 11:01:49;;;;;;;13.48;8.82;;;31.20;99.90;;;;;;5083275;28;20189;-72
2023/08/15 11:04:19;;;;;;;15.55;7.88;;;31.10;99.90;;;;;;5082150;28;20194;-73
2023/08/15 11:06:48;;;;;;;17.80;7.68;;;31.20;99.90;;;;;;5067090;28;20211;-72
2023/08/15 11:09:17;;;;;;;13.30;8.32;;;31.20;99.90;;;;;;5098803;28;20189;-72
2023/08/15 11:11:48;;;;;;;14.57;8.30;;;31.20;99.90;;;;;;5101472;28;20185;-72
2023/08/15 11:14:19;;;;;;;14.85;8.65;;;31.20;99.90;;;;;;5098514;28;20216;-73
2023/08/15 11:16:49;;;;;;;12.35;8.25;;;31.20;99.90;;;;;;5076683;28;20188;-72
2023/08/15 11:19:18;;;;;;;17.00;8.30;;;31.20;99.90;;;;;;5095289;28;20257;-72
2023/08/15 11:21:44;;;;;;;13.15;7.70;;;31.20;99.90;;;;;;5081636;28;20919;-72
2023/08/15 11:24:11;;;;;;;14.60;8.00;;;31.20;99.90;;;;;;5078220;28;20269;-72
2023/08/15 11:26:37;;;;;;;13.48;8.35;;;31.20;99.90;;;;;;5084527;28;20709;-72
2023/08/15 11:29:04;;;;;;;19.00;8.40;;;31.20;99.90;;;;;;5101651;28;20272;-72
2023/08/15 11:31:31;;;;;;;17.55;9.45;;;31.10;99.90;;;;;;5099989;28;20683;-72
2023/08/15 11:34:02;;;;;;;14.93;8.57;;;31.10;99.90;;;;;;5099005;28;20288;-73
2023/08/15 11:36:29;;;;;;;18.55;9.18;;;31.10;99.90;;;;;;5096835;28;20228;-73
2023/08/15 11:38:56;;;;;;;18.50;8.30;;;31.00;99.90;;;;;;5098029;28;20212;-72
2023/08/15 11:41:23;;;;;;;17.92;9.15;;;31.00;99.90;;;;;;5067071;28;20185;-73
2023/08/15 11:43:50;;;;;;;21.83;8.35;;;31.00;99.90;;;;;;5085081;28;20693;-73
2023/08/15 11:46:16;;;;;;;15.05;7.47;;;31.00;99.90;;;;;;5076171;28;20656;-73
2023/08/15 11:48:45;;;;;;;15.48;7.97;;;31.00;99.90;;;;;;5081907;28;20544;-73
2023/08/15 11:51:19;;;;;;;11.95;8.40;;;31.00;99.90;;;;;;5062354;28;20182;-73
2023/08/15 11:53:53;;;;;;;16.20;8.75;;;31.00;99.90;;;;;;5083032;28;20217;-73
2023/08/15 11:56:20;;;;;;;16.00;8.02;;;31.00;99.90;;;;;;5078390;28;20190;-73
2023/08/15 11:58:50;;;;;;;14.30;8.07;;;31.00;99.90;;;;;;5086236;28;20291;-73
2023/08/15 12:01:16;;;;;;;14.27;8.93;;;31.00;99.90;;;;;;5078869;28;20230;-73
2023/08/15 12:03:43;;;;;;;16.15;9.25;;;31.00;99.90;;;;;;5060129;28;20193;-73
2023/08/15 12:06:13;;;;;;;18.65;8.57;;;30.90;99.90;;;;;;5078244;28;20193;-73
2023/08/15 12:08:44;;;;;;;19.27;8.70;;;30.90;99.90;;;;;;5064760;28;20272;-73
2023/08/15 12:11:11;;;;;;;16.85;8.65;;;30.90;99.90;;;;;;5081050;28;20189;-73
2023/08/15 12:13:41;;;;;;;17.42;8.95;;;30.80;99.90;;;;;;5100858;27;20284;-73
2023/08/15 12:16:10;;;;;;;10.55;7.93;;;30.80;99.90;;;;;;5086599;28;20190;-73
2023/08/15 12:18:39;;;;;;;14.70;8.43;;;30.80;99.90;;;;;;5096815;28;20196;-73
2023/08/15 12:21:05;;;;;;;13.02;8.68;;;30.70;99.90;;;;;;5101917;27;20193;-73
2023/08/15 12:23:31;;;;;;;16.77;8.60;;;30.70;99.90;;;;;;5101235;27;20273;-73
2023/08/15 12:25:58;;;;;;;13.52;8.30;;;30.60;99.90;;;;;;5078557;28;20219;-73
2023/08/15 12:28:24;;;;;;;13.43;8.40;;;30.50;99.90;;;;;;5104931;27;20613;-73
2023/08/15 12:30:50;;;;;;;18.40;8.32;;;30.50;99.90;;;;;;5088172;28;20196;-73
2023/08/15 12:33:17;;;;;;;21.80;9.23;;;30.50;99.90;;;;;;5083183;28;20216;-73
2023/08/15 12:35:44;;;;;;;16.88;9.38;;;30.40;99.90;;;;;;5083741;27;20182;-73
2023/08/15 12:38:10;;;;;;;16.45;8.68;;;30.50;99.90;;;;;;5103729;27;20192;-73
2023/08/15 12:40:40;;;;;;;18.40;8.93;;;30.50;99.90;;;;;;5105110;27;20185;-73